sensor_id;sensor_type;location;lat;lon;timestamp;P1;durP1;ratioP1;P2;durP2;ratioP2
9370;SDS011;4725;48.384;8.984;2022-08-25T00:00:45;3.45;;;3.10;;
9370;SDS011;4725;48.384;8.984;2022-08-25T00:03:14;4.13;;;2.60;;
9370;SDS011;4725;48.384;8.984;2022-08-25T00:05:41;3.05;;;2.53;;
9370;SDS011;4725;48.384;8.984;2022-08-25T00:08:08;2.70;;;2.50;;
9370;SDS011;4725;48.384;8.984;2022-08-25T00:10:36;2.97;;;2.78;;
9370;SDS011;4725;48.384;8.984;2022-08-25T00:13:05;5.57;;;2.47;;
9370;SDS011;4725;48.384;8.984;2022-08-25T00:15:32;3.03;;;2.72;;
9370;SDS011;4725;48.384;8.984;2022-08-25T00:17:59;5.03;;;2.65;;
9370;SDS011;4725;48.384;8.984;2022-08-25T00:20:28;2.65;;;2.45;;
9370;SDS011;4725;48.384;8.984;2022-08-25T00:22:55;2.60;;;2.40;;
9370;SDS011;4725;48.384;8.984;2022-08-25T00:25:22;3.72;;;2.75;;
9370;SDS011;4725;48.384;8.984;2022-08-25T00:27:50;2.85;;;2.65;;
9370;SDS011;4725;48.384;8.984;2022-08-25T00:30:18;3.83;;;2.50;;
9370;SDS011;4725;48.384;8.984;2022-08-25T00:32:45;3.58;;;3.20;;
9370;SDS011;4725;48.384;8.984;2022-08-25T00:35:13;3.17;;;2.75;;
9370;SDS011;4725;48.384;8.984;2022-08-25T00:37:40;3.25;;;2.13;;
9370;SDS011;4725;48.384;8.984;2022-08-25T00:40:08;5.82;;;2.78;;
9370;SDS011;4725;48.384;8.984;2022-08-25T00:42:36;2.50;;;2.30;;
9370;SDS011;4725;48.384;8.984;2022-08-25T00:45:03;3.25;;;2.95;;
9370;SDS011;4725;48.384;8.984;2022-08-25T00:47:33;3.70;;;2.92;;
9370;SDS011;4725;48.384;8.984;2022-08-25T00:50:02;3.83;;;2.92;;
9370;SDS011;4725;48.384;8.984;2022-08-25T00:52:32;2.75;;;2.47;;
9370;SDS011;4725;48.384;8.984;2022-08-25T00:55:03;6.53;;;2.60;;
9370;SDS011;4725;48.384;8.984;2022-08-25T00:57:33;2.55;;;2.35;;
9370;SDS011;4725;48.384;8.984;2022-08-25T01:00:04;2.90;;;2.60;;
9370;SDS011;4725;48.384;8.984;2022-08-25T01:02:37;2.83;;;2.63;;
9370;SDS011;4725;48.384;8.984;2022-08-25T01:05:04;2.70;;;2.50;;
9370;SDS011;4725;48.384;8.984;2022-08-25T01:07:32;3.42;;;3.13;;
9370;SDS011;4725;48.384;8.984;2022-08-25T01:09:59;2.75;;;2.25;;
9370;SDS011;4725;48.384;8.984;2022-08-25T01:12:26;4.03;;;2.17;;
9370;SDS011;4725;48.384;8.984;2022-08-25T01:14:53;3.50;;;3.17;;
9370;SDS011;4725;48.384;8.984;2022-08-25T01:17:22;3.47;;;2.55;;
9370;SDS011;4725;48.384;8.984;2022-08-25T01:19:53;6.35;;;2.88;;
9370;SDS011;4725;48.384;8.984;2022-08-25T01:22:22;2.42;;;2.22;;
9370;SDS011;4725;48.384;8.984;2022-08-25T01:24:51;3.05;;;2.75;;
9370;SDS011;4725;48.384;8.984;2022-08-25T01:27:22;3.13;;;2.53;;
9370;SDS011;4725;48.384;8.984;2022-08-25T01:29:49;5.53;;;2.85;;
9370;SDS011;4725;48.384;8.984;2022-08-25T01:32:16;3.35;;;2.70;;
9370;SDS011;4725;48.384;8.984;2022-08-25T01:34:44;3.13;;;2.40;;
9370;SDS011;4725;48.384;8.984;2022-08-25T01:37:12;5.63;;;2.80;;
9370;SDS011;4725;48.384;8.984;2022-08-25T01:39:41;3.03;;;2.72;;
9370;SDS011;4725;48.384;8.984;2022-08-25T01:42:17;2.85;;;2.65;;
9370;SDS011;4725;48.384;8.984;2022-08-25T01:44:53;2.47;;;2.28;;
9370;SDS011;4725;48.384;8.984;2022-08-25T01:47:20;2.60;;;2.40;;
9370;SDS011;4725;48.384;8.984;2022-08-25T01:49:48;3.35;;;3.08;;
9370;SDS011;4725;48.384;8.984;2022-08-25T01:52:18;3.60;;;3.30;;
9370;SDS011;4725;48.384;8.984;2022-08-25T01:54:50;5.80;;;4.82;;
9370;SDS011;4725;48.384;8.984;2022-08-25T01:57:17;4.38;;;3.85;;
9370;SDS011;4725;48.384;8.984;2022-08-25T01:59:44;4.30;;;3.92;;
9370;SDS011;4725;48.384;8.984;2022-08-25T02:02:11;5.75;;;3.70;;
9370;SDS011;4725;48.384;8.984;2022-08-25T02:04:38;3.70;;;3.40;;
9370;SDS011;4725;48.384;8.984;2022-08-25T02:07:06;3.50;;;3.20;;
9370;SDS011;4725;48.384;8.984;2022-08-25T02:09:34;7.40;;;3.17;;
9370;SDS011;4725;48.384;8.984;2022-08-25T02:12:04;3.65;;;3.13;;
9370;SDS011;4725;48.384;8.984;2022-08-25T02:14:33;6.70;;;3.58;;
9370;SDS011;4725;48.384;8.984;2022-08-25T02:17:01;5.22;;;4.72;;
9370;SDS011;4725;48.384;8.984;2022-08-25T02:19:28;4.78;;;4.32;;
9370;SDS011;4725;48.384;8.984;2022-08-25T02:21:56;5.07;;;4.45;;
9370;SDS011;4725;48.384;8.984;2022-08-25T02:24:23;5.97;;;4.93;;
9370;SDS011;4725;48.384;8.984;2022-08-25T02:26:50;5.47;;;4.97;;
9370;SDS011;4725;48.384;8.984;2022-08-25T02:29:18;6.28;;;4.95;;
9370;SDS011;4725;48.384;8.984;2022-08-25T02:31:45;4.35;;;3.95;;
9370;SDS011;4725;48.384;8.984;2022-08-25T02:34:12;6.07;;;3.80;;
9370;SDS011;4725;48.384;8.984;2022-08-25T02:36:40;5.72;;;4.20;;
9370;SDS011;4725;48.384;8.984;2022-08-25T02:39:08;4.55;;;3.83;;
9370;SDS011;4725;48.384;8.984;2022-08-25T02:41:35;3.72;;;3.40;;
9370;SDS011;4725;48.384;8.984;2022-08-25T02:44:04;3.75;;;3.45;;
9370;SDS011;4725;48.384;8.984;2022-08-25T02:46:33;4.93;;;3.25;;
9370;SDS011;4725;48.384;8.984;2022-08-25T02:49:01;3.60;;;3.28;;
9370;SDS011;4725;48.384;8.984;2022-08-25T02:51:28;3.58;;;3.05;;
9370;SDS011;4725;48.384;8.984;2022-08-25T02:53:56;3.10;;;2.90;;
9370;SDS011;4725;48.384;8.984;2022-08-25T02:56:23;3.22;;;3.03;;
9370;SDS011;4725;48.384;8.984;2022-08-25T02:58:50;4.00;;;3.55;;
9370;SDS011;4725;48.384;8.984;2022-08-25T03:01:17;4.05;;;3.65;;
9370;SDS011;4725;48.384;8.984;2022-08-25T03:03:46;3.60;;;3.30;;
9370;SDS011;4725;48.384;8.984;2022-08-25T03:06:15;5.47;;;3.47;;
9370;SDS011;4725;48.384;8.984;2022-08-25T03:08:44;3.60;;;3.30;;
9370;SDS011;4725;48.384;8.984;2022-08-25T03:11:11;5.37;;;3.60;;
9370;SDS011;4725;48.384;8.984;2022-08-25T03:13:39;3.73;;;3.20;;
9370;SDS011;4725;48.384;8.984;2022-08-25T03:16:06;3.60;;;3.30;;
9370;SDS011;4725;48.384;8.984;2022-08-25T03:18:34;4.03;;;3.33;;
9370;SDS011;4725;48.384;8.984;2022-08-25T03:21:03;3.33;;;3.03;;
9370;SDS011;4725;48.384;8.984;2022-08-25T03:23:30;4.00;;;3.60;;
9370;SDS011;4725;48.384;8.984;2022-08-25T03:25:57;3.93;;;3.63;;
9370;SDS011;4725;48.384;8.984;2022-08-25T03:28:41;4.10;;;3.80;;
9370;SDS011;4725;48.384;8.984;2022-08-25T03:31:08;5.80;;;5.30;;
9370;SDS011;4725;48.384;8.984;2022-08-25T03:33:36;5.50;;;4.97;;
9370;SDS011;4725;48.384;8.984;2022-08-25T03:36:05;5.53;;;5.00;;
9370;SDS011;4725;48.384;8.984;2022-08-25T03:38:34;6.13;;;5.33;;
9370;SDS011;4725;48.384;8.984;2022-08-25T03:41:09;8.60;;;6.03;;
9370;SDS011;4725;48.384;8.984;2022-08-25T03:43:38;5.50;;;4.70;;
9370;SDS011;4725;48.384;8.984;2022-08-25T03:46:05;7.80;;;4.93;;
9370;SDS011;4725;48.384;8.984;2022-08-25T03:48:32;5.80;;;4.97;;
9370;SDS011;4725;48.384;8.984;2022-08-25T03:50:59;6.57;;;5.80;;
9370;SDS011;4725;48.384;8.984;2022-08-25T03:53:28;5.03;;;4.53;;
9370;SDS011;4725;48.384;8.984;2022-08-25T03:55:55;5.40;;;4.80;;
9370;SDS011;4725;48.384;8.984;2022-08-25T03:58:22;5.27;;;4.77;;
9370;SDS011;4725;48.384;8.984;2022-08-25T04:00:49;4.70;;;4.30;;
9370;SDS011;4725;48.384;8.984;2022-08-25T04:03:16;5.40;;;4.87;;
9370;SDS011;4725;48.384;8.984;2022-08-25T04:05:44;4.93;;;4.43;;
9370;SDS011;4725;48.384;8.984;2022-08-25T04:08:11;4.43;;;4.03;;
9370;SDS011;4725;48.384;8.984;2022-08-25T04:10:40;4.37;;;4.00;;
9370;SDS011;4725;48.384;8.984;2022-08-25T04:13:07;4.13;;;3.73;;
9370;SDS011;4725;48.384;8.984;2022-08-25T04:15:34;4.47;;;3.93;;
9370;SDS011;4725;48.384;8.984;2022-08-25T04:18:02;5.50;;;5.00;;
9370;SDS011;4725;48.384;8.984;2022-08-25T04:20:29;5.27;;;4.77;;
9370;SDS011;4725;48.384;8.984;2022-08-25T04:22:55;5.13;;;4.63;;
9370;SDS011;4725;48.384;8.984;2022-08-25T04:25:25;4.70;;;4.30;;
9370;SDS011;4725;48.384;8.984;2022-08-25T04:27:53;4.27;;;3.87;;
9370;SDS011;4725;48.384;8.984;2022-08-25T04:30:21;4.83;;;4.33;;
9370;SDS011;4725;48.384;8.984;2022-08-25T04:32:48;8.87;;;4.20;;
9370;SDS011;4725;48.384;8.984;2022-08-25T04:35:15;5.27;;;4.13;;
9370;SDS011;4725;48.384;8.984;2022-08-25T04:37:42;9.57;;;3.93;;
9370;SDS011;4725;48.384;8.984;2022-08-25T04:40:12;8.83;;;4.63;;
9370;SDS011;4725;48.384;8.984;2022-08-25T04:42:39;8.63;;;4.37;;
9370;SDS011;4725;48.384;8.984;2022-08-25T04:45:07;5.50;;;3.97;;
9370;SDS011;4725;48.384;8.984;2022-08-25T04:47:38;4.90;;;4.47;;
9370;SDS011;4725;48.384;8.984;2022-08-25T04:50:05;4.33;;;3.93;;
9370;SDS011;4725;48.384;8.984;2022-08-25T04:52:33;4.90;;;3.90;;
9370;SDS011;4725;48.384;8.984;2022-08-25T04:55:00;7.70;;;4.27;;
9370;SDS011;4725;48.384;8.984;2022-08-25T04:57:27;4.00;;;3.57;;
9370;SDS011;4725;48.384;8.984;2022-08-25T04:59:54;4.70;;;4.27;;
9370;SDS011;4725;48.384;8.984;2022-08-25T05:02:22;6.07;;;4.20;;
9370;SDS011;4725;48.384;8.984;2022-08-25T05:04:50;4.57;;;4.03;;
9370;SDS011;4725;48.384;8.984;2022-08-25T05:07:17;6.97;;;4.63;;
9370;SDS011;4725;48.384;8.984;2022-08-25T05:09:44;4.93;;;4.00;;
9370;SDS011;4725;48.384;8.984;2022-08-25T05:12:11;5.23;;;3.93;;
9370;SDS011;4725;48.384;8.984;2022-08-25T05:14:38;5.33;;;4.13;;
9370;SDS011;4725;48.384;8.984;2022-08-25T05:17:05;7.73;;;3.67;;
9370;SDS011;4725;48.384;8.984;2022-08-25T05:19:33;4.37;;;3.97;;
9370;SDS011;4725;48.384;8.984;2022-08-25T05:22:01;3.57;;;3.27;;
9370;SDS011;4725;48.384;8.984;2022-08-25T05:24:28;3.97;;;3.50;;
9370;SDS011;4725;48.384;8.984;2022-08-25T05:26:55;4.50;;;3.77;;
9370;SDS011;4725;48.384;8.984;2022-08-25T05:29:22;4.17;;;3.87;;
9370;SDS011;4725;48.384;8.984;2022-08-25T05:31:49;7.13;;;5.17;;
9370;SDS011;4725;48.384;8.984;2022-08-25T05:34:17;6.67;;;4.90;;
9370;SDS011;4725;48.384;8.984;2022-08-25T05:36:47;4.70;;;4.30;;
9370;SDS011;4725;48.384;8.984;2022-08-25T05:39:15;7.87;;;5.33;;
9370;SDS011;4725;48.384;8.984;2022-08-25T05:41:42;5.87;;;5.27;;
9370;SDS011;4725;48.384;8.984;2022-08-25T05:44:09;6.13;;;4.80;;
9370;SDS011;4725;48.384;8.984;2022-08-25T05:46:37;5.07;;;4.57;;
9370;SDS011;4725;48.384;8.984;2022-08-25T05:49:04;4.77;;;4.27;;
9370;SDS011;4725;48.384;8.984;2022-08-25T05:51:31;5.33;;;4.73;;
9370;SDS011;4725;48.384;8.984;2022-08-25T05:53:59;6.18;;;4.63;;
9370;SDS011;4725;48.384;8.984;2022-08-25T05:56:27;8.45;;;5.47;;
9370;SDS011;4725;48.384;8.984;2022-08-25T05:58:55;9.02;;;5.43;;
9370;SDS011;4725;48.384;8.984;2022-08-25T06:01:23;7.97;;;4.80;;
9370;SDS011;4725;48.384;8.984;2022-08-25T06:04:09;6.40;;;4.43;;
9370;SDS011;4725;48.384;8.984;2022-08-25T06:06:37;12.65;;;4.22;;
9370;SDS011;4725;48.384;8.984;2022-08-25T06:09:06;6.25;;;4.28;;
9370;SDS011;4725;48.384;8.984;2022-08-25T06:11:35;6.60;;;5.43;;
9370;SDS011;4725;48.384;8.984;2022-08-25T06:14:03;10.70;;;5.22;;
9370;SDS011;4725;48.384;8.984;2022-08-25T06:16:31;5.88;;;4.40;;
9370;SDS011;4725;48.384;8.984;2022-08-25T06:18:58;9.25;;;4.90;;
9370;SDS011;4725;48.384;8.984;2022-08-25T06:21:26;11.10;;;5.70;;
9370;SDS011;4725;48.384;8.984;2022-08-25T06:23:53;6.75;;;4.57;;
9370;SDS011;4725;48.384;8.984;2022-08-25T06:26:21;5.60;;;4.63;;
9370;SDS011;4725;48.384;8.984;2022-08-25T06:28:48;6.55;;;5.45;;
9370;SDS011;4725;48.384;8.984;2022-08-25T06:31:15;8.18;;;5.88;;
9370;SDS011;4725;48.384;8.984;2022-08-25T06:33:43;6.80;;;5.60;;
9370;SDS011;4725;48.384;8.984;2022-08-25T06:36:10;8.85;;;5.80;;
9370;SDS011;4725;48.384;8.984;2022-08-25T06:38:37;6.65;;;5.85;;
9370;SDS011;4725;48.384;8.984;2022-08-25T06:41:04;7.80;;;4.90;;
9370;SDS011;4725;48.384;8.984;2022-08-25T06:43:33;6.10;;;5.43;;
9370;SDS011;4725;48.384;8.984;2022-08-25T06:46:06;4.68;;;4.25;;
9370;SDS011;4725;48.384;8.984;2022-08-25T06:48:34;5.47;;;4.90;;
9370;SDS011;4725;48.384;8.984;2022-08-25T06:51:04;5.10;;;4.70;;
9370;SDS011;4725;48.384;8.984;2022-08-25T06:53:32;6.35;;;5.38;;
9370;SDS011;4725;48.384;8.984;2022-08-25T06:55:59;8.70;;;4.63;;
9370;SDS011;4725;48.384;8.984;2022-08-25T06:58:27;5.55;;;5.05;;
9370;SDS011;4725;48.384;8.984;2022-08-25T07:00:56;5.43;;;4.90;;
9370;SDS011;4725;48.384;8.984;2022-08-25T07:03:33;7.25;;;4.70;;
9370;SDS011;4725;48.384;8.984;2022-08-25T07:06:00;6.97;;;4.82;;
9370;SDS011;4725;48.384;8.984;2022-08-25T07:08:28;5.53;;;4.63;;
9370;SDS011;4725;48.384;8.984;2022-08-25T07:10:55;6.53;;;5.20;;
9370;SDS011;4725;48.384;8.984;2022-08-25T07:13:22;4.43;;;4.05;;
9370;SDS011;4725;48.384;8.984;2022-08-25T07:15:52;5.57;;;4.90;;
9370;SDS011;4725;48.384;8.984;2022-08-25T07:18:21;5.88;;;4.57;;
9370;SDS011;4725;48.384;8.984;2022-08-25T07:20:48;6.43;;;5.47;;
9370;SDS011;4725;48.384;8.984;2022-08-25T07:23:16;5.70;;;5.22;;
9370;SDS011;4725;48.384;8.984;2022-08-25T07:25:43;7.22;;;5.03;;
9370;SDS011;4725;48.384;8.984;2022-08-25T07:28:10;5.13;;;4.63;;
9370;SDS011;4725;48.384;8.984;2022-08-25T07:30:37;9.15;;;5.00;;
9370;SDS011;4725;48.384;8.984;2022-08-25T07:33:04;6.68;;;4.85;;
9370;SDS011;4725;48.384;8.984;2022-08-25T07:35:32;5.00;;;4.50;;
9370;SDS011;4725;48.384;8.984;2022-08-25T07:37:58;5.07;;;4.10;;
9370;SDS011;4725;48.384;8.984;2022-08-25T07:40:26;6.45;;;4.70;;
9370;SDS011;4725;48.384;8.984;2022-08-25T07:42:56;4.97;;;4.47;;
9370;SDS011;4725;48.384;8.984;2022-08-25T07:45:25;6.45;;;4.78;;
9370;SDS011;4725;48.384;8.984;2022-08-25T07:47:55;4.32;;;4.00;;
9370;SDS011;4725;48.384;8.984;2022-08-25T07:50:22;4.75;;;4.35;;
9370;SDS011;4725;48.384;8.984;2022-08-25T07:52:51;4.40;;;4.00;;
9370;SDS011;4725;48.384;8.984;2022-08-25T07:55:18;4.93;;;4.28;;
9370;SDS011;4725;48.384;8.984;2022-08-25T07:57:45;4.57;;;4.18;;
9370;SDS011;4725;48.384;8.984;2022-08-25T08:00:12;4.85;;;4.40;;
9370;SDS011;4725;48.384;8.984;2022-08-25T08:02:41;4.15;;;3.75;;
9370;SDS011;4725;48.384;8.984;2022-08-25T08:05:09;5.05;;;4.43;;
9370;SDS011;4725;48.384;8.984;2022-08-25T08:07:36;5.00;;;4.50;;
9370;SDS011;4725;48.384;8.984;2022-08-25T08:10:06;4.50;;;4.10;;
9370;SDS011;4725;48.384;8.984;2022-08-25T08:12:35;4.93;;;4.53;;
9370;SDS011;4725;48.384;8.984;2022-08-25T08:15:04;5.35;;;3.97;;
9370;SDS011;4725;48.384;8.984;2022-08-25T08:17:31;4.22;;;3.83;;
9370;SDS011;4725;48.384;8.984;2022-08-25T08:19:58;4.82;;;4.38;;
9370;SDS011;4725;48.384;8.984;2022-08-25T08:22:29;5.75;;;4.28;;
9370;SDS011;4725;48.384;8.984;2022-08-25T08:24:57;4.90;;;3.95;;
9370;SDS011;4725;48.384;8.984;2022-08-25T08:27:25;4.68;;;4.28;;
9370;SDS011;4725;48.384;8.984;2022-08-25T08:29:52;4.95;;;4.03;;
9370;SDS011;4725;48.384;8.984;2022-08-25T08:32:19;5.15;;;4.65;;
9370;SDS011;4725;48.384;8.984;2022-08-25T08:34:47;4.50;;;4.10;;
9370;SDS011;4725;48.384;8.984;2022-08-25T08:37:15;4.72;;;4.22;;
9370;SDS011;4725;48.384;8.984;2022-08-25T08:39:42;4.50;;;4.10;;
9370;SDS011;4725;48.384;8.984;2022-08-25T08:42:13;4.90;;;4.30;;
9370;SDS011;4725;48.384;8.984;2022-08-25T08:45:05;5.68;;;4.20;;
9370;SDS011;4725;48.384;8.984;2022-08-25T08:47:53;4.20;;;3.88;;
9370;SDS011;4725;48.384;8.984;2022-08-25T08:50:30;6.95;;;4.30;;
9370;SDS011;4725;48.384;8.984;2022-08-25T08:53:06;5.13;;;4.63;;
9370;SDS011;4725;48.384;8.984;2022-08-25T08:55:38;4.35;;;4.05;;
9370;SDS011;4725;48.384;8.984;2022-08-25T08:58:10;3.70;;;3.40;;
9370;SDS011;4725;48.384;8.984;2022-08-25T09:00:45;4.05;;;3.65;;
9370;SDS011;4725;48.384;8.984;2022-08-25T09:03:15;4.28;;;3.83;;
9370;SDS011;4725;48.384;8.984;2022-08-25T09:05:55;4.63;;;4.13;;
9370;SDS011;4725;48.384;8.984;2022-08-25T09:08:28;4.57;;;4.18;;
9370;SDS011;4725;48.384;8.984;2022-08-25T09:10:59;3.78;;;3.47;;
9370;SDS011;4725;48.384;8.984;2022-08-25T09:13:35;3.80;;;3.50;;
9370;SDS011;4725;48.384;8.984;2022-08-25T09:16:17;5.07;;;3.90;;
9370;SDS011;4725;48.384;8.984;2022-08-25T09:19:11;4.55;;;3.83;;
9370;SDS011;4725;48.384;8.984;2022-08-25T09:21:48;4.45;;;3.88;;
9370;SDS011;4725;48.384;8.984;2022-08-25T09:24:23;4.78;;;3.47;;
9370;SDS011;4725;48.384;8.984;2022-08-25T09:27:05;3.78;;;3.38;;
9370;SDS011;4725;48.384;8.984;2022-08-25T09:29:41;4.00;;;3.70;;
9370;SDS011;4725;48.384;8.984;2022-08-25T09:32:20;3.88;;;3.50;;
9370;SDS011;4725;48.384;8.984;2022-08-25T09:34:48;3.88;;;3.58;;
9370;SDS011;4725;48.384;8.984;2022-08-25T09:37:17;4.65;;;3.70;;
9370;SDS011;4725;48.384;8.984;2022-08-25T09:39:44;5.18;;;4.20;;
9370;SDS011;4725;48.384;8.984;2022-08-25T09:42:11;3.85;;;3.55;;
9370;SDS011;4725;48.384;8.984;2022-08-25T09:44:39;5.07;;;3.70;;
9370;SDS011;4725;48.384;8.984;2022-08-25T09:47:12;3.15;;;2.95;;
9370;SDS011;4725;48.384;8.984;2022-08-25T09:49:47;3.22;;;2.92;;
9370;SDS011;4725;48.384;8.984;2022-08-25T09:52:25;4.20;;;3.80;;
9370;SDS011;4725;48.384;8.984;2022-08-25T09:54:58;4.85;;;3.85;;
9370;SDS011;4725;48.384;8.984;2022-08-25T09:57:43;6.85;;;4.30;;
9370;SDS011;4725;48.384;8.984;2022-08-25T10:00:13;5.30;;;3.97;;
9370;SDS011;4725;48.384;8.984;2022-08-25T10:02:43;3.80;;;3.50;;
9370;SDS011;4725;48.384;8.984;2022-08-25T10:05:26;6.35;;;3.70;;
9370;SDS011;4725;48.384;8.984;2022-08-25T10:07:59;3.45;;;3.15;;
9370;SDS011;4725;48.384;8.984;2022-08-25T10:10:28;4.45;;;3.67;;
9370;SDS011;4725;48.384;8.984;2022-08-25T10:12:57;4.30;;;3.80;;
9370;SDS011;4725;48.384;8.984;2022-08-25T10:15:26;3.72;;;3.42;;
9370;SDS011;4725;48.384;8.984;2022-08-25T10:17:55;3.78;;;3.47;;
9370;SDS011;4725;48.384;8.984;2022-08-25T10:20:24;3.67;;;3.20;;
9370;SDS011;4725;48.384;8.984;2022-08-25T10:23:07;6.80;;;4.15;;
9370;SDS011;4725;48.384;8.984;2022-08-25T10:25:36;3.60;;;3.28;;
9370;SDS011;4725;48.384;8.984;2022-08-25T10:28:09;5.78;;;3.72;;
9370;SDS011;4725;48.384;8.984;2022-08-25T10:30:44;5.07;;;3.08;;
9370;SDS011;4725;48.384;8.984;2022-08-25T10:33:23;3.40;;;3.10;;
9370;SDS011;4725;48.384;8.984;2022-08-25T10:35:58;6.55;;;3.45;;
9370;SDS011;4725;48.384;8.984;2022-08-25T10:38:37;4.15;;;3.20;;
9370;SDS011;4725;48.384;8.984;2022-08-25T10:41:11;3.35;;;3.05;;
9370;SDS011;4725;48.384;8.984;2022-08-25T10:43:51;3.53;;;3.22;;
9370;SDS011;4725;48.384;8.984;2022-08-25T10:46:29;5.55;;;3.40;;
9370;SDS011;4725;48.384;8.984;2022-08-25T10:49:02;3.13;;;2.83;;
9370;SDS011;4725;48.384;8.984;2022-08-25T10:51:40;3.30;;;3.10;;
9370;SDS011;4725;48.384;8.984;2022-08-25T10:54:19;4.15;;;2.60;;
9370;SDS011;4725;48.384;8.984;2022-08-25T10:56:57;2.70;;;2.50;;
9370;SDS011;4725;48.384;8.984;2022-08-25T10:59:38;2.65;;;2.45;;
9370;SDS011;4725;48.384;8.984;2022-08-25T11:05:26;2.97;;;2.45;;
9370;SDS011;4725;48.384;8.984;2022-08-25T11:07:59;2.80;;;2.60;;
9370;SDS011;4725;48.384;8.984;2022-08-25T11:10:34;4.85;;;2.88;;
9370;SDS011;4725;48.384;8.984;2022-08-25T11:13:07;3.17;;;2.53;;
9370;SDS011;4725;48.384;8.984;2022-08-25T11:15:42;2.70;;;2.50;;
9370;SDS011;4725;48.384;8.984;2022-08-25T11:18:16;3.97;;;2.60;;
9370;SDS011;4725;48.384;8.984;2022-08-25T11:20:44;2.03;;;1.90;;
9370;SDS011;4725;48.384;8.984;2022-08-25T11:23:19;2.40;;;2.20;;
9370;SDS011;4725;48.384;8.984;2022-08-25T11:25:50;2.38;;;2.17;;
9370;SDS011;4725;48.384;8.984;2022-08-25T11:28:20;2.60;;;2.40;;
9370;SDS011;4725;48.384;8.984;2022-08-25T11:30:53;2.40;;;2.20;;
9370;SDS011;4725;48.384;8.984;2022-08-25T11:33:22;2.75;;;2.20;;
9370;SDS011;4725;48.384;8.984;2022-08-25T11:35:51;2.50;;;2.30;;
9370;SDS011;4725;48.384;8.984;2022-08-25T11:38:27;2.70;;;2.50;;
9370;SDS011;4725;48.384;8.984;2022-08-25T11:41:10;5.35;;;2.22;;
9370;SDS011;4725;48.384;8.984;2022-08-25T11:43:54;2.85;;;2.58;;
9370;SDS011;4725;48.384;8.984;2022-08-25T11:46:36;3.30;;;3.00;;
9370;SDS011;4725;48.384;8.984;2022-08-25T11:49:20;6.78;;;2.80;;
9370;SDS011;4725;48.384;8.984;2022-08-25T11:52:02;4.18;;;2.67;;
9370;SDS011;4725;48.384;8.984;2022-08-25T11:54:35;2.80;;;2.60;;
9370;SDS011;4725;48.384;8.984;2022-08-25T11:57:08;4.93;;;2.47;;
9370;SDS011;4725;48.384;8.984;2022-08-25T12:00:09;2.72;;;2.20;;
9370;SDS011;4725;48.384;8.984;2022-08-25T12:02:39;4.35;;;2.50;;
9370;SDS011;4725;48.384;8.984;2022-08-25T12:05:09;2.58;;;2.30;;
9370;SDS011;4725;48.384;8.984;2022-08-25T12:07:59;4.40;;;2.92;;
9370;SDS011;4725;48.384;8.984;2022-08-25T12:10:53;2.58;;;2.38;;
9370;SDS011;4725;48.384;8.984;2022-08-25T12:13:24;5.57;;;2.75;;
9370;SDS011;4725;48.384;8.984;2022-08-25T12:16:02;3.55;;;2.42;;
9370;SDS011;4725;48.384;8.984;2022-08-25T12:18:37;2.60;;;2.40;;
9370;SDS011;4725;48.384;8.984;2022-08-25T12:21:28;2.50;;;2.22;;
9370;SDS011;4725;48.384;8.984;2022-08-25T12:24:13;3.72;;;2.22;;
9370;SDS011;4725;48.384;8.984;2022-08-25T12:26:44;3.78;;;2.35;;
9370;SDS011;4725;48.384;8.984;2022-08-25T12:29:23;2.47;;;2.28;;
9370;SDS011;4725;48.384;8.984;2022-08-25T12:32:00;3.92;;;2.50;;
9370;SDS011;4725;48.384;8.984;2022-08-25T12:37:55;2.78;;;2.45;;
9370;SDS011;4725;48.384;8.984;2022-08-25T12:40:30;2.97;;;2.70;;
9370;SDS011;4725;48.384;8.984;2022-08-25T12:43:04;3.55;;;2.65;;
9370;SDS011;4725;48.384;8.984;2022-08-25T12:45:38;3.10;;;2.10;;
9370;SDS011;4725;48.384;8.984;2022-08-25T12:51:15;2.65;;;2.10;;
9370;SDS011;4725;48.384;8.984;2022-08-25T12:53:45;2.53;;;2.33;;
9370;SDS011;4725;48.384;8.984;2022-08-25T12:56:17;1.98;;;1.83;;
9370;SDS011;4725;48.384;8.984;2022-08-25T12:58:55;2.10;;;2.00;;
9370;SDS011;4725;48.384;8.984;2022-08-25T13:01:37;1.75;;;1.65;;
9370;SDS011;4725;48.384;8.984;2022-08-25T13:04:30;4.15;;;1.90;;
9370;SDS011;4725;48.384;8.984;2022-08-25T13:07:15;1.90;;;1.80;;
9370;SDS011;4725;48.384;8.984;2022-08-25T13:09:59;2.63;;;1.92;;
9370;SDS011;4725;48.384;8.984;2022-08-25T13:12:45;2.03;;;1.75;;
9370;SDS011;4725;48.384;8.984;2022-08-25T13:15:26;1.80;;;1.70;;
9370;SDS011;4725;48.384;8.984;2022-08-25T13:18:11;2.15;;;1.90;;
9370;SDS011;4725;48.384;8.984;2022-08-25T13:20:47;1.60;;;1.50;;
9370;SDS011;4725;48.384;8.984;2022-08-25T13:23:19;1.88;;;1.77;;
9370;SDS011;4725;48.384;8.984;2022-08-25T13:25:50;2.20;;;2.10;;
9370;SDS011;4725;48.384;8.984;2022-08-25T13:28:28;3.22;;;1.80;;
9370;SDS011;4725;48.384;8.984;2022-08-25T13:30:59;2.03;;;1.83;;
9370;SDS011;4725;48.384;8.984;2022-08-25T13:33:29;1.90;;;1.80;;
9370;SDS011;4725;48.384;8.984;2022-08-25T13:35:57;2.45;;;1.60;;
9370;SDS011;4725;48.384;8.984;2022-08-25T13:38:43;2.58;;;1.65;;
9370;SDS011;4725;48.384;8.984;2022-08-25T13:41:15;1.90;;;1.65;;
9370;SDS011;4725;48.384;8.984;2022-08-25T13:43:45;2.42;;;1.60;;
9370;SDS011;4725;48.384;8.984;2022-08-25T13:46:18;2.13;;;1.63;;
9370;SDS011;4725;48.384;8.984;2022-08-25T13:48:46;1.80;;;1.70;;
9370;SDS011;4725;48.384;8.984;2022-08-25T13:51:20;1.98;;;1.75;;
9370;SDS011;4725;48.384;8.984;2022-08-25T13:53:50;2.50;;;1.75;;
9370;SDS011;4725;48.384;8.984;2022-08-25T13:56:24;1.80;;;1.70;;
9370;SDS011;4725;48.384;8.984;2022-08-25T13:58:54;3.60;;;2.00;;
9370;SDS011;4725;48.384;8.984;2022-08-25T14:01:25;1.90;;;1.50;;
9370;SDS011;4725;48.384;8.984;2022-08-25T14:03:55;1.95;;;1.83;;
9370;SDS011;4725;48.384;8.984;2022-08-25T14:06:42;1.80;;;1.40;;
9370;SDS011;4725;48.384;8.984;2022-08-25T14:09:13;1.88;;;1.77;;
9370;SDS011;4725;48.384;8.984;2022-08-25T14:11:43;3.83;;;2.05;;
9370;SDS011;4725;48.384;8.984;2022-08-25T14:14:12;2.38;;;1.77;;
9370;SDS011;4725;48.384;8.984;2022-08-25T14:16:59;1.73;;;1.63;;
9370;SDS011;4725;48.384;8.984;2022-08-25T14:19:28;2.20;;;1.60;;
9370;SDS011;4725;48.384;8.984;2022-08-25T14:21:55;3.85;;;1.83;;
9370;SDS011;4725;48.384;8.984;2022-08-25T14:24:26;1.67;;;1.58;;
9370;SDS011;4725;48.384;8.984;2022-08-25T14:26:57;2.30;;;1.75;;
9370;SDS011;4725;48.384;8.984;2022-08-25T14:29:24;1.80;;;1.70;;
9370;SDS011;4725;48.384;8.984;2022-08-25T14:31:51;1.77;;;1.67;;
9370;SDS011;4725;48.384;8.984;2022-08-25T14:34:20;1.70;;;1.60;;
9370;SDS011;4725;48.384;8.984;2022-08-25T14:36:49;2.25;;;1.80;;
9370;SDS011;4725;48.384;8.984;2022-08-25T14:39:17;3.30;;;2.15;;
9370;SDS011;4725;48.384;8.984;2022-08-25T14:41:44;1.90;;;1.70;;
9370;SDS011;4725;48.384;8.984;2022-08-25T14:44:12;2.00;;;1.88;;
9370;SDS011;4725;48.384;8.984;2022-08-25T14:46:40;2.97;;;1.80;;
9370;SDS011;4725;48.384;8.984;2022-08-25T14:49:10;3.55;;;2.30;;
9370;SDS011;4725;48.384;8.984;2022-08-25T14:51:43;4.97;;;1.98;;
9370;SDS011;4725;48.384;8.984;2022-08-25T14:54:10;2.05;;;1.88;;
9370;SDS011;4725;48.384;8.984;2022-08-25T14:56:39;5.75;;;2.20;;
9370;SDS011;4725;48.384;8.984;2022-08-25T14:59:06;2.20;;;1.95;;
9370;SDS011;4725;48.384;8.984;2022-08-25T15:01:33;3.50;;;2.05;;
9370;SDS011;4725;48.384;8.984;2022-08-25T15:04:01;2.85;;;2.20;;
9370;SDS011;4725;48.384;8.984;2022-08-25T15:06:30;2.47;;;1.67;;
9370;SDS011;4725;48.384;8.984;2022-08-25T15:09:01;2.10;;;2.00;;
9370;SDS011;4725;48.384;8.984;2022-08-25T15:11:36;1.70;;;1.60;;
9370;SDS011;4725;48.384;8.984;2022-08-25T15:14:05;2.80;;;2.00;;
9370;SDS011;4725;48.384;8.984;2022-08-25T15:16:34;1.95;;;1.85;;
9370;SDS011;4725;48.384;8.984;2022-08-25T15:19:04;2.90;;;1.90;;
9370;SDS011;4725;48.384;8.984;2022-08-25T15:21:31;2.50;;;1.90;;
9370;SDS011;4725;48.384;8.984;2022-08-25T15:23:58;2.70;;;1.80;;
9370;SDS011;4725;48.384;8.984;2022-08-25T15:26:26;2.00;;;1.90;;
9370;SDS011;4725;48.384;8.984;2022-08-25T15:28:54;2.75;;;1.73;;
9370;SDS011;4725;48.384;8.984;2022-08-25T15:31:20;2.28;;;2.08;;
9370;SDS011;4725;48.384;8.984;2022-08-25T15:33:48;2.65;;;1.70;;
9370;SDS011;4725;48.384;8.984;2022-08-25T15:36:16;1.90;;;1.80;;
9370;SDS011;4725;48.384;8.984;2022-08-25T15:38:47;1.88;;;1.77;;
9370;SDS011;4725;48.384;8.984;2022-08-25T15:41:14;2.40;;;2.20;;
9370;SDS011;4725;48.384;8.984;2022-08-25T15:43:42;6.07;;;1.92;;
9370;SDS011;4725;48.384;8.984;2022-08-25T15:46:09;16.42;;;3.67;;